Time;durP1;ratioP1;P1;durP2;ratioP2;P2;SDS_P1;SDS_P2;PMS_P1;PMS_P2;Temp;Humidity;BMP_temperature;BMP_pressure;BME280_temperature;BME280_humidity;BME280_pressure;Samples;Min_cycle;Max_cycle;Signal;HPM_P1;HPM_P2
2022/05/11 00:01:26;;;;;;;4.97;3.08;;;;;;;21.60;42.09;101201.75;5136726;27;20046;-61
2022/05/11 00:03:53;;;;;;;9.50;3.47;;;;;;;21.64;42.21;101200.38;5132487;27;20067;-62
2022/05/11 00:06:20;;;;;;;6.30;3.00;;;;;;;21.64;42.15;101194.91;5119026;27;20035;-62
2022/05/11 00:08:46;;;;;;;4.88;3.30;;;;;;;21.66;42.27;101187.41;5134579;27;20049;-63
2022/05/11 00:11:14;;;;;;;6.90;3.33;;;;;;;21.69;42.11;101184.31;5131954;27;20053;-63
2022/05/11 00:13:41;;;;;;;7.10;3.47;;;;;;;21.71;42.25;101190.47;5118924;27;20039;-62
2022/05/11 00:16:08;;;;;;;4.18;3.30;;;;;;;21.72;42.54;101192.16;5137423;27;20050;-63
2022/05/11 00:18:34;;;;;;;6.05;3.20;;;;;;;21.70;42.27;101189.59;5137198;27;20076;-62
2022/05/11 00:21:02;;;;;;;6.28;3.25;;;;;;;21.71;42.00;101182.25;5137201;27;20043;-63
2022/05/11 00:23:29;;;;;;;4.18;3.28;;;;;;;21.73;42.16;101188.41;5128712;27;20077;-64
2022/05/11 00:25:56;;;;;;;6.32;3.08;;;;;;;21.74;42.57;101185.50;5137092;27;20500;-63
2022/05/11 00:28:22;;;;;;;4.75;4.25;;;;;;;21.74;42.28;101176.44;5133709;27;20046;-63
2022/05/11 00:30:49;;;;;;;6.40;3.20;;;;;;;21.72;42.65;101170.31;5122427;27;20101;-62
2022/05/11 00:33:16;;;;;;;6.60;3.38;;;;;;;21.70;42.55;101173.22;5121890;27;20051;-62
2022/05/11 00:35:46;;;;;;;4.28;3.30;;;;;;;21.71;42.48;101172.19;5115926;28;20039;-62
2022/05/11 00:38:14;;;;;;;5.80;3.50;;;;;;;21.73;42.49;101163.81;5116775;28;20405;-63
2022/05/11 00:40:53;;;;;;;5.60;2.95;;;;;;;21.72;42.83;101160.22;5116306;28;20050;-62
2022/05/11 00:43:27;;;;;;;4.15;3.30;;;;;;;21.71;42.75;101155.78;5116101;28;20497;-62
2022/05/11 00:46:03;;;;;;;4.80;3.45;;;;;;;21.66;42.59;101151.84;5116367;28;20055;-63
2022/05/11 00:51:15;;;;;;;4.40;3.50;;;;;;;21.57;43.04;101145.56;5116458;28;20044;-63
2022/05/11 00:53:48;;;;;;;5.03;3.80;;;;;;;21.54;42.86;101144.00;5116090;28;20059;-63
2022/05/11 00:56:15;;;;;;;4.07;2.97;;;;;;;21.54;42.70;101132.19;5116393;28;20040;-63
2022/05/11 00:58:56;;;;;;;8.13;3.72;;;;;;;21.53;43.03;101130.50;5115911;28;20047;-62
2022/05/11 01:01:24;;;;;;;6.55;3.88;;;;;;;21.55;42.63;101133.91;5116322;28;20482;-62
2022/05/11 01:04:02;;;;;;;5.65;3.58;;;;;;;21.52;42.93;101132.38;5132155;27;20081;-63
2022/05/11 01:06:31;;;;;;;5.30;3.75;;;;;;;21.52;43.03;101131.53;5136515;27;20031;-62
2022/05/11 01:09:03;;;;;;;6.30;4.13;;;;;;;21.51;43.20;101130.66;5135925;27;20054;-63
2022/05/11 01:11:30;;;;;;;5.68;3.78;;;;;;;21.51;42.90;101132.56;5136754;27;20110;-62
2022/05/11 01:13:57;;;;;;;6.82;3.88;;;;;;;21.52;43.16;101128.78;5136576;27;20039;-62
2022/05/11 01:16:26;;;;;;;4.85;3.90;;;;;;;21.53;43.18;101128.63;5136371;27;20035;-62
2022/05/11 01:18:53;;;;;;;5.85;4.35;;;;;;;21.52;43.26;101135.09;5136865;27;20050;-62
2022/05/11 01:21:22;;;;;;;6.22;4.00;;;;;;;21.53;43.17;101122.28;5136485;27;20369;-62
2022/05/11 01:24:07;;;;;;;8.77;4.55;;;;;;;21.51;43.43;101122.47;5136045;27;20388;-62
2022/05/11 01:26:34;;;;;;;5.93;4.28;;;;;;;21.52;43.25;101126.91;5136316;27;20050;-63
2022/05/11 01:29:01;;;;;;;7.45;3.78;;;;;;;21.52;43.20;101120.59;5136074;27;20046;-62
2022/05/11 01:31:28;;;;;;;5.40;3.60;;;;;;;21.53;43.05;101120.41;5136027;27;20058;-63
2022/05/11 01:33:54;;;;;;;6.20;4.13;;;;;;;21.51;43.12;101114.28;5135917;27;20043;-62
2022/05/11 01:36:30;;;;;;;5.78;3.88;;;;;;;21.50;43.29;101109.84;5135194;27;20039;-62
2022/05/11 01:38:59;;;;;;;7.40;3.75;;;;;;;21.50;43.15;101109.84;5136109;27;20046;-62
2022/05/11 01:41:41;;;;;;;5.30;3.72;;;;;;;21.49;43.19;101113.59;5135725;27;20426;-62
2022/05/11 01:44:16;;;;;;;5.88;4.10;;;;;;;21.49;43.54;101104.53;5135942;27;20039;-62
2022/05/11 01:46:45;;;;;;;6.22;3.85;;;;;;;21.49;43.21;101105.41;5135739;27;20512;-62
2022/05/11 01:49:12;;;;;;;6.97;4.32;;;;;;;21.49;43.28;101108.13;5134592;27;20075;-62
2022/05/11 01:51:38;;;;;;;6.55;3.40;;;;;;;21.48;43.56;101103.69;5134550;27;20092;-62
2022/05/11 01:54:05;;;;;;;6.05;3.65;;;;;;;21.46;43.41;101108.47;5135795;27;20388;-63
2022/05/11 01:56:32;;;;;;;6.30;3.95;;;;;;;21.44;43.55;101112.41;5134616;27;20054;-62
2022/05/11 01:58:59;;;;;;;5.10;3.47;;;;;;;21.41;43.38;101096.34;5135581;27;20062;-62
2022/05/11 02:01:29;;;;;;;9.18;4.05;;;;;;;21.39;43.50;101103.88;5135494;27;20039;-63
2022/05/11 02:03:56;;;;;;;5.03;3.65;;;;;;;21.36;43.78;101102.34;5135227;27;20039;-62
2022/05/11 02:09:08;;;;;;;5.60;3.40;;;;;;;21.34;43.99;101090.72;5135519;27;20531;-61
2022/05/11 02:11:35;;;;;;;4.10;3.25;;;;;;;21.34;43.71;101095.34;5135284;27;20669;-62
2022/05/11 02:14:02;;;;;;;8.68;3.45;;;;;;;21.31;43.73;101091.09;5135140;27;20075;-61
2022/05/11 02:16:29;;;;;;;10.60;3.67;;;;;;;21.31;44.04;101088.34;5133219;27;20039;-62
2022/05/11 02:18:55;;;;;;;5.40;3.33;;;;;;;21.32;43.77;101089.19;5134529;27;20065;-62
2022/05/11 02:21:22;;;;;;;5.10;3.38;;;;;;;21.32;44.05;101084.59;5135169;27;20053;-62
2022/05/11 02:23:50;;;;;;;4.88;3.63;;;;;;;21.32;44.06;101081.88;5133834;27;20054;-62
2022/05/11 02:26:19;;;;;;;5.30;3.78;;;;;;;21.31;44.04;101080.16;5135129;27;20502;-62
2022/05/11 02:28:50;;;;;;;6.65;3.92;;;;;;;21.23;44.18;101086.47;5134954;27;20054;-62
2022/05/11 02:31:17;;;;;;;6.18;3.95;;;;;;;21.19;44.18;101084.25;5135228;27;20044;-62
2022/05/11 02:33:44;;;;;;;3.85;3.45;;;;;;;21.11;44.37;101073.31;5134505;27;20092;-62
2022/05/11 02:36:11;;;;;;;6.75;4.10;;;;;;;21.07;44.09;101085.63;5132552;27;20050;-62
2022/05/11 02:38:40;;;;;;;6.78;3.58;;;;;;;21.04;44.66;101081.34;5134738;27;20043;-63
2022/05/11 02:41:07;;;;;;;6.85;3.42;;;;;;;21.02;44.49;101079.81;5133629;27;20035;-63
2022/05/11 02:43:33;;;;;;;7.55;3.65;;;;;;;20.98;44.54;101079.28;5134643;27;20039;-62
2022/05/11 02:46:00;;;;;;;7.43;3.85;;;;;;;20.97;44.67;101084.94;5134709;27;20114;-61
2022/05/11 02:48:31;;;;;;;4.85;3.67;;;;;;;20.97;44.60;101082.19;5134530;27;20043;-63
2022/05/11 02:50:59;;;;;;;8.27;3.50;;;;;;;20.96;44.98;101084.06;5134775;27;20039;-63
2022/05/11 02:53:28;;;;;;;6.03;3.78;;;;;;;20.94;45.10;101086.13;5134426;27;20035;-62
2022/05/11 02:55:56;;;;;;;5.32;3.38;;;;;;;20.92;44.67;101075.38;5133621;27;20074;-63
2022/05/11 02:58:26;;;;;;;6.07;3.10;;;;;;;20.91;44.95;101078.28;5134502;27;20127;-62
2022/05/11 03:00:55;;;;;;;5.95;3.30;;;;;;;20.90;45.12;101076.56;5134588;27;20043;-63
2022/05/11 03:03:22;;;;;;;8.05;3.72;;;;;;;20.89;44.79;101074.88;5134650;27;20035;-63
2022/05/11 03:05:52;;;;;;;5.35;3.28;;;;;;;20.88;45.16;101071.28;5133835;27;20051;-61
2022/05/11 03:08:20;;;;;;;7.13;3.38;;;;;;;20.88;45.10;101073.16;5134438;27;20050;-63
2022/05/11 03:10:47;;;;;;;5.10;2.95;;;;;;;20.87;44.84;101064.13;5134369;27;20039;-62
2022/05/11 03:13:14;;;;;;;3.53;3.20;;;;;;;20.87;45.17;101074.19;5130849;27;20043;-64
2022/05/11 03:15:42;;;;;;;5.60;3.30;;;;;;;20.84;45.31;101072.66;5134299;27;20043;-62
2022/05/11 03:18:09;;;;;;;3.80;3.10;;;;;;;20.84;45.21;101074.53;5132224;27;20047;-62
2022/05/11 03:20:35;;;;;;;7.68;4.05;;;;;;;20.82;45.01;101074.69;5134141;27;20046;-62
2022/05/11 03:23:02;;;;;;;5.90;3.15;;;;;;;20.83;45.42;101067.34;5134296;27;20035;-63
2022/05/11 03:25:28;;;;;;;6.18;3.00;;;;;;;20.79;44.88;101064.06;5134370;27;20046;-63
2022/05/11 03:27:55;;;;;;;4.80;3.00;;;;;;;20.80;45.41;101065.78;5133929;27;20043;-63
2022/05/11 03:30:22;;;;;;;3.72;3.10;;;;;;;20.76;45.22;101055.38;5135254;27;20065;-62
2022/05/11 03:35:34;;;;;;;;;;;;;;;20.73;45.18;101058.44;5121065;27;20040;-62
2022/05/11 03:38:01;;;;;;;6.18;2.95;;;;;;;20.76;45.36;101042.59;5138424;27;19919;-63
2022/05/11 03:40:35;;;;;;;4.25;2.60;;;;;;;20.74;45.32;101044.63;5138109;27;20043;-62
2022/05/11 03:43:03;;;;;;;3.85;2.80;;;;;;;20.74;45.29;101043.78;5099482;28;20036;-62
2022/05/11 03:45:30;;;;;;;5.22;2.88;;;;;;;20.72;45.39;101035.75;5117593;27;20039;-63
2022/05/11 03:47:57;;;;;;;7.82;2.95;;;;;;;20.71;45.28;101041.38;5138028;27;20404;-63
2022/05/11 03:50:25;;;;;;;3.20;2.78;;;;;;;20.71;45.17;101036.78;5135815;27;20039;-63
2022/05/11 03:52:53;;;;;;;3.70;2.72;;;;;;;20.73;45.46;101031.16;5137979;27;20119;-62
2022/05/11 03:55:22;;;;;;;4.95;3.08;;;;;;;20.75;44.99;101045.47;5136311;27;20047;-62
2022/05/11 03:57:48;;;;;;;3.22;2.25;;;;;;;20.74;45.33;101028.25;5131050;27;20046;-62
2022/05/11 04:00:20;;;;;;;2.70;2.40;;;;;;;20.74;45.05;101028.25;5137224;27;20043;-61
2022/05/11 04:02:50;;;;;;;5.50;2.85;;;;;;;20.77;45.10;101032.53;5119966;27;20420;-61
2022/05/11 04:05:18;;;;;;;3.75;2.50;;;;;;;20.78;45.33;101026.88;5134328;27;20023;-63
2022/05/11 04:07:45;;;;;;;3.33;2.30;;;;;;;20.81;45.16;101023.84;5137030;27;20509;-62
2022/05/11 04:10:14;;;;;;;3.80;2.63;;;;;;;20.83;45.13;101018.22;5136350;27;20400;-62
2022/05/11 04:12:41;;;;;;;5.85;2.97;;;;;;;20.81;45.39;101017.53;5127680;27;20038;-63
2022/05/11 04:15:08;;;;;;;5.38;2.85;;;;;;;20.79;45.38;101022.28;5137382;27;20035;-63
2022/05/11 04:17:36;;;;;;;7.68;3.63;;;;;;;20.80;45.32;101024.84;5118904;27;20059;-63
2022/05/11 04:20:05;;;;;;;4.07;2.40;;;;;;;20.79;45.41;101025.00;5128725;27;20071;-61
2022/05/11 04:22:31;;;;;;;4.72;2.83;;;;;;;20.79;45.05;101025.00;5136415;27;20507;-63
2022/05/11 04:24:59;;;;;;;5.07;2.50;;;;;;;20.80;45.15;101024.84;5137277;27;20039;-62
2022/05/11 04:27:25;;;;;;;6.00;2.85;;;;;;;20.79;45.33;101019.56;5136731;27;20047;-62
2022/05/11 04:29:52;;;;;;;3.47;2.45;;;;;;;20.79;45.29;101014.94;5137309;27;20590;-62
2022/05/11 04:32:19;;;;;;;3.63;2.65;;;;;;;20.76;45.58;101015.28;5137237;27;20435;-63
2022/05/11 04:34:45;;;;;;;4.97;2.50;;;;;;;20.74;45.29;101017.34;5126999;27;20047;-62
2022/05/11 04:37:12;;;;;;;5.82;2.70;;;;;;;20.75;45.49;101018.19;5135658;28;20047;-62
2022/05/11 04:39:39;;;;;;;3.45;2.40;;;;;;;20.73;45.13;101021.09;5135169;28;20373;-62
2022/05/11 04:42:07;;;;;;;3.65;2.47;;;;;;;20.73;45.57;101015.63;5135050;27;20043;-63
2022/05/11 04:44:33;;;;;;;4.63;2.65;;;;;;;20.73;45.56;101018.38;5135661;28;20542;-62
2022/05/11 04:47:08;;;;;;;5.85;2.65;;;;;;;20.72;45.40;101024.84;5135773;28;20043;-62
2022/05/11 04:49:35;;;;;;;2.60;2.33;;;;;;;20.71;45.69;101017.69;5117243;28;20035;-62
2022/05/11 04:52:22;;;;;;;3.92;2.22;;;;;;;20.69;45.50;101013.41;5135342;28;20032;-62
2022/05/11 04:54:49;;;;;;;5.70;2.47;;;;;;;20.71;45.42;101012.22;5133314;28;20035;-62
2022/05/11 04:57:18;;;;;;;5.95;2.90;;;;;;;20.73;45.69;101010.16;5135455;28;20114;-62
2022/05/11 04:59:45;;;;;;;3.15;2.50;;;;;;;20.75;45.81;101013.59;5135246;28;20050;-62
2022/05/11 05:02:18;;;;;;;3.92;2.58;;;;;;;20.79;45.75;101016.81;5121193;28;20035;-62
2022/05/11 05:04:45;;;;;;;5.18;2.92;;;;;;;20.78;45.82;101021.44;5129557;28;20027;-62
2022/05/11 05:07:12;;;;;;;4.70;2.35;;;;;;;20.79;45.69;101017.69;5135453;28;20485;-62
2022/05/11 05:09:39;;;;;;;4.15;2.30;;;;;;;20.81;45.97;101020.28;5125697;28;20047;-62
2022/05/11 05:12:06;;;;;;;5.75;2.30;;;;;;;20.81;46.09;101018.38;5115890;28;20039;-62
2022/05/11 05:14:33;;;;;;;7.50;2.97;;;;;;;20.84;45.83;101030.84;5122435;28;20043;-62
2022/05/11 05:17:01;;;;;;;3.42;2.50;;;;;;;20.86;45.65;101029.66;5126089;28;20127;-63
2022/05/11 05:19:29;;;;;;;3.67;2.50;;;;;;;20.89;45.83;101031.19;5129165;28;20036;-62
2022/05/11 05:21:55;;;;;;;4.95;2.65;;;;;;;20.92;45.81;101028.09;5129882;27;20050;-62
2022/05/11 05:24:22;;;;;;;7.38;2.83;;;;;;;20.92;45.97;101030.84;5135216;28;20043;-62
2022/05/11 05:26:48;;;;;;;4.15;3.45;;;;;;;20.93;45.86;101027.94;5131889;28;20031;-62
2022/05/11 05:32:00;;;;;;;5.55;2.58;;;;;;;20.96;45.87;101025.88;5123206;28;20554;-61
2022/05/11 05:34:29;;;;;;;5.10;2.65;;;;;;;20.97;45.98;101038.50;5095518;27;1032687;-62
2022/05/11 05:36:55;;;;;;;8.00;2.65;;;;;;;20.95;45.76;101035.97;5136148;27;20050;-61
2022/05/11 05:39:22;;;;;;;4.85;2.67;;;;;;;20.96;45.72;101039.53;5136250;27;20039;-62
2022/05/11 05:41:49;;;;;;;5.07;2.55;;;;;;;20.94;45.94;101035.09;5135101;27;20043;-62
2022/05/11 05:44:15;;;;;;;5.60;2.90;;;;;;;20.94;45.94;101035.09;5129258;27;20039;-62
2022/05/11 05:46:42;;;;;;;4.85;3.13;;;;;;;20.97;45.59;101027.59;5135901;27;20054;-62
2022/05/11 05:49:09;;;;;;;2.80;2.28;;;;;;;20.97;46.16;101035.78;5135646;27;20539;-62
2022/05/11 05:51:36;;;;;;;3.65;2.80;;;;;;;20.99;45.86;101028.28;5135646;27;20035;-62
2022/05/11 05:54:03;;;;;;;6.88;2.60;;;;;;;21.01;46.08;101035.25;5116300;27;20035;-61
2022/05/11 05:56:30;;;;;;;3.78;2.20;;;;;;;21.05;45.92;101028.44;5135536;27;20485;-62
2022/05/11 05:58:58;;;;;;;3.35;2.15;;;;;;;21.08;45.78;101033.56;5133609;27;20035;-62
2022/05/11 06:01:25;;;;;;;4.28;2.25;;;;;;;21.11;45.36;101032.34;5135384;27;20125;-62
2022/05/11 06:03:52;;;;;;;4.57;2.20;;;;;;;21.09;45.32;101035.25;5135047;27;20496;-63
2022/05/11 06:06:19;;;;;;;3.13;2.50;;;;;;;21.11;45.49;101043.28;5135523;27;20389;-62
2022/05/11 06:08:46;;;;;;;3.60;2.20;;;;;;;21.16;44.90;101043.59;5135485;27;20046;-62
2022/05/11 06:11:13;;;;;;;7.20;2.80;;;;;;;21.19;45.39;101046.00;5127188;27;20051;-62
2022/05/11 06:13:41;;;;;;;4.10;2.10;;;;;;;21.22;45.38;101041.06;5134558;27;20074;-61
2022/05/11 06:16:10;;;;;;;5.05;1.95;;;;;;;21.27;44.72;101042.44;5153163;27;20030;-62
2022/05/11 06:18:41;;;;;;;3.28;2.00;;;;;;;21.31;44.62;101058.28;5137124;27;20547;-62
2022/05/11 06:21:08;;;;;;;5.47;2.05;;;;;;;21.37;44.67;101052.13;5135258;27;20039;-62
2022/05/11 06:23:36;;;;;;;5.15;2.00;;;;;;;21.44;44.70;101052.28;5129707;27;20042;-62
2022/05/11 06:26:03;;;;;;;5.50;2.08;;;;;;;21.49;44.55;101045.28;5132807;27;20057;-62
2022/05/11 06:28:30;;;;;;;4.22;2.30;;;;;;;21.56;44.20;101045.47;5128852;27;20058;-63
2022/05/11 06:31:18;;;;;;;2.65;1.83;;;;;;;21.66;44.27;101037.06;5133788;27;20047;-63
2022/05/11 06:33:46;;;;;;;3.30;1.90;;;;;;;21.75;44.29;101033.25;5134491;27;20043;-61
2022/05/11 06:36:14;;;;;;;3.63;2.05;;;;;;;21.84;43.73;101027.59;5135085;27;20393;-62
2022/05/11 06:38:40;;;;;;;4.70;1.88;;;;;;;21.93;43.43;101022.94;5134888;27;20047;-61
2022/05/11 06:41:09;;;;;;;4.85;2.00;;;;;;;21.99;43.58;101019.47;5134829;27;20062;-62
2022/05/11 06:43:36;;;;;;;2.60;1.90;;;;;;;22.05;42.83;101029.72;5134903;27;20046;-61
2022/05/11 06:46:02;;;;;;;3.22;2.20;;;;;;;22.11;43.09;101022.69;5134091;27;20511;-62
2022/05/11 06:48:30;;;;;;;4.25;2.72;;;;;;;22.16;42.84;101031.22;5134602;27;20053;-62
2022/05/11 06:50:58;;;;;;;4.05;1.80;;;;;;;22.24;42.82;101019.38;5116536;27;20164;-62
2022/05/11 06:53:26;;;;;;;4.38;1.90;;;;;;;22.34;42.29;101014.53;5134685;27;20035;-62
2022/05/11 07:01:59;;;;;;;3.58;1.77;;;;;;;22.69;41.56;101024.03;5031601;28;20048;-62
2022/05/11 07:04:26;;;;;;;3.00;1.73;;;;;;;22.86;41.59;101019.28;5103601;27;20058;-62
2022/05/11 07:06:57;;;;;;;5.15;1.90;;;;;;;22.96;41.40;101019.88;5134444;27;20051;-62
2022/05/11 07:09:25;;;;;;;6.15;1.60;;;;;;;23.03;40.85;101027.16;5134660;27;20046;-63
2022/05/11 07:14:38;;;;;;;;;;;;;;;23.12;40.75;101020.59;5134588;27;20480;-62
2022/05/11 07:17:05;;;;;;;5.85;1.88;;;;;;;23.23;40.47;101021.19;5134663;28;19980;-61
2022/05/11 07:19:33;;;;;;;6.25;1.67;;;;;;;23.31;40.49;101023.84;5134407;28;20088;-61
2022/05/11 07:22:00;;;;;;;3.38;2.00;;;;;;;23.38;40.21;101019.31;5134654;28;20130;-62
2022/05/11 07:24:27;;;;;;;5.03;2.13;;;;;;;23.44;39.99;101013.91;5133407;28;20049;-62
2022/05/11 07:26:54;;;;;;;3.88;2.03;;;;;;;23.51;40.31;101014.00;5134264;27;20493;-62
2022/05/11 07:29:32;;;;;;;4.25;2.10;;;;;;;23.59;40.00;101013.09;5134104;27;20126;-63
2022/05/11 07:31:59;;;;;;;6.30;1.90;;;;;;;23.67;39.70;101018.50;5134664;28;20039;-62
2022/05/11 07:34:25;;;;;;;6.30;1.98;;;;;;;23.75;39.53;101024.72;5134085;28;20396;-62
2022/05/11 07:36:54;;;;;;;2.80;1.60;;;;;;;23.83;39.12;101021.06;5134351;28;20374;-62
2022/05/11 07:39:23;;;;;;;6.35;2.05;;;;;;;23.94;39.29;101023.31;5114113;28;20464;-62
2022/05/11 07:41:51;;;;;;;3.90;1.73;;;;;;;23.97;38.98;101020.19;5113311;28;20040;-64
2022/05/11 07:44:18;;;;;;;4.45;2.28;;;;;;;24.01;38.82;101017.91;5129056;27;20055;-63
2022/05/11 07:46:45;;;;;;;3.85;1.95;;;;;;;24.10;39.24;101019.50;5134315;27;20134;-63
2022/05/11 07:49:11;;;;;;;6.30;2.30;;;;;;;24.25;38.98;101019.44;5115651;28;20412;-63
2022/05/11 07:51:41;;;;;;;5.65;2.20;;;;;;;24.38;38.89;101017.72;5134102;27;20035;-62
2022/05/11 07:54:08;;;;;;;6.93;2.30;;;;;;;24.48;38.76;101014.66;5134008;27;20039;-62
2022/05/11 08:02:05;;;;;;;6.03;2.10;;;;;;;24.71;38.50;101015.34;5113372;28;20509;-63
2022/05/11 08:04:31;;;;;;;5.18;2.35;;;;;;;24.81;38.38;101012.25;5112848;28;20036;-63
2022/05/11 08:06:59;;;;;;;3.85;2.20;;;;;;;24.93;38.44;101007.06;5113044;28;20036;-62
2022/05/11 08:09:25;;;;;;;4.28;2.28;;;;;;;25.04;38.19;101014.78;5113011;28;20043;-63
2022/05/11 08:11:54;;;;;;;5.80;2.20;;;;;;;25.09;38.06;101009.56;5112731;28;20047;-63
2022/05/11 08:14:22;;;;;;;5.47;2.47;;;;;;;25.15;38.02;101011.50;5113112;28;20405;-63
2022/05/11 08:16:52;;;;;;;3.58;2.15;;;;;;;25.19;37.85;101015.53;5114737;28;20055;-64
2022/05/11 08:19:24;;;;;;;7.72;2.63;;;;;;;25.28;37.73;101017.13;5098413;28;20073;-63
2022/05/11 08:21:52;;;;;;;4.47;2.22;;;;;;;25.38;37.69;101029.66;5098162;28;20055;-62
2022/05/11 08:24:19;;;;;;;6.30;2.38;;;;;;;25.43;37.63;101019.75;5116562;28;20066;-61
2022/05/11 08:26:51;;;;;;;4.30;2.22;;;;;;;25.45;37.31;101023.16;5136438;27;20061;-62
2022/05/11 08:34:51;;;;;;;5.35;2.40;;;;;;;25.39;36.71;101017.63;5137058;27;20040;-63
2022/05/11 08:37:19;;;;;;;7.00;2.45;;;;;;;25.43;36.83;101014.25;5136725;27;20039;-63
2022/05/11 08:39:45;;;;;;;7.22;2.60;;;;;;;25.51;36.62;101016.00;5143029;27;20544;-63
2022/05/11 08:42:12;;;;;;;5.07;2.83;;;;;;;25.54;36.39;101010.09;5137524;27;20118;-63
2022/05/11 08:44:45;;;;;;;5.60;2.88;;;;;;;25.57;36.08;101012.44;5137067;27;20071;-64
2022/05/11 08:47:45;;;;;;;6.68;2.78;;;;;;;25.58;35.80;101017.72;5118719;27;20039;-64
2022/05/11 08:50:26;;;;;;;7.18;2.63;;;;;;;25.66;36.13;101008.50;5109585;28;20039;-63
2022/05/11 08:52:55;;;;;;;6.93;2.78;;;;;;;25.76;36.12;101016.38;5116140;28;20074;-62
2022/05/11 08:55:30;;;;;;;7.38;2.35;;;;;;;25.84;35.97;101010.69;5116283;28;20550;-63
2022/05/11 08:58:02;;;;;;;14.15;2.35;;;;;;;25.93;36.19;101009.47;5116710;28;20069;-63
2022/05/11 09:00:29;;;;;;;5.63;2.67;;;;;;;26.04;35.80;101013.56;5116621;28;20048;-63
2022/05/11 09:03:07;;;;;;;6.93;2.55;;;;;;;26.08;35.46;101006.59;5116008;28;20061;-63
2022/05/11 09:05:34;;;;;;;5.75;2.50;;;;;;;26.14;35.28;101016.78;5131758;27;20063;-63
2022/05/11 09:08:04;;;;;;;5.38;2.70;;;;;;;26.20;35.36;101011.28;5136795;27;20047;-63
2022/05/11 09:10:35;;;;;;;5.93;2.83;;;;;;;26.26;35.30;101004.09;5136534;27;20061;-62
2022/05/11 09:13:06;;;;;;;5.82;2.30;;;;;;;26.30;34.83;101005.38;5136771;27;20043;-62
2022/05/11 09:15:47;;;;;;;4.68;2.30;;;;;;;26.31;34.58;101004.31;5136389;27;20046;-62
2022/05/11 09:18:14;;;;;;;6.75;2.53;;;;;;;26.34;34.43;100997.56;5135502;27;20538;-62
2022/05/11 09:20:50;;;;;;;5.75;3.15;;;;;;;26.38;34.66;100999.72;5134999;27;20059;-62
2022/05/11 09:23:31;;;;;;;6.35;2.35;;;;;;;26.44;34.81;100995.28;5136333;27;20043;-61
2022/05/11 09:26:14;;;;;;;8.05;2.45;;;;;;;26.51;34.71;100990.63;5136354;27;20054;-64
2022/05/11 09:28:45;;;;;;;7.65;2.47;;;;;;;26.64;34.69;100984.28;5135003;27;20039;-63
2022/05/11 09:31:23;;;;;;;9.52;3.15;;;;;;;26.82;34.76;100992.78;5135263;27;20053;-62
2022/05/11 09:33:57;;;;;;;4.63;2.60;;;;;;;27.02;34.78;100993.66;5134741;27;20035;-63
2022/05/11 09:37:01;;;;;;;6.25;2.40;;;;;;;27.17;34.24;100986.00;5136061;27;20542;-61
2022/05/11 09:39:30;;;;;;;6.05;2.70;;;;;;;27.23;33.76;100984.31;5136302;27;20055;-63
2022/05/11 09:42:12;;;;;;;5.90;2.72;;;;;;;27.21;33.46;100983.66;5134727;27;20035;-62
2022/05/11 09:44:44;;;;;;;4.72;2.97;;;;;;;27.19;33.73;100985.78;5136080;27;20418;-61
2022/05/11 09:47:33;;;;;;;6.15;3.20;;;;;;;27.18;33.60;100987.69;5136109;27;20039;-62
2022/05/11 09:50:23;;;;;;;6.13;2.40;;;;;;;27.25;33.94;100981.31;5135004;27;20392;-62
2022/05/11 09:52:51;;;;;;;5.70;2.80;;;;;;;27.40;33.70;100987.44;5134458;27;20596;-62
2022/05/11 09:55:28;;;;;;;6.13;3.05;;;;;;;27.44;33.24;100980.44;5135512;27;20489;-64
2022/05/11 09:58:02;;;;;;;6.63;2.72;;;;;;;27.42;33.07;100980.66;5133742;27;20035;-63
2022/05/11 10:00:40;;;;;;;6.93;2.97;;;;;;;27.42;32.93;100980.66;5135508;27;20485;-62
2022/05/11 10:03:19;;;;;;;6.10;3.05;;;;;;;27.44;32.86;100975.75;5134647;27;20042;-63
2022/05/11 10:05:48;;;;;;;5.60;2.50;;;;;;;27.49;33.15;100977.88;5110766;27;20043;-64
2022/05/11 10:08:29;;;;;;;5.32;3.00;;;;;;;27.58;33.21;100975.75;5135347;27;20504;-64
2022/05/11 10:11:18;;;;;;;5.40;3.03;;;;;;;27.77;32.86;100969.34;5135454;27;20043;-64
2022/05/11 10:14:02;;;;;;;4.50;2.50;;;;;;;27.95;32.69;100976.91;5135318;27;20039;-64
2022/05/11 10:22:38;;;;;;;8.32;2.45;;;;;;;28.42;32.60;100968.19;5135156;27;20058;-63
2022/05/11 10:25:17;;;;;;;9.82;2.65;;;;;;;28.61;32.62;100968.25;5133501;27;20046;-63
2022/05/11 10:27:53;;;;;;;6.82;2.25;;;;;;;28.85;32.55;100963.84;5135093;27;20419;-63
2022/05/11 10:30:28;;;;;;;5.22;2.30;;;;;;;29.10;32.49;100960.00;5135134;27;20059;-63
2022/05/11 10:33:01;;;;;;;10.15;3.10;;;;;;;29.28;31.83;100956.41;5134188;27;20069;-64
2022/05/11 10:35:55;;;;;;;6.75;2.85;;;;;;;29.31;31.22;100960.63;5134958;27;20055;-63
2022/05/11 10:38:30;;;;;;;7.65;3.35;;;;;;;29.30;31.21;100950.66;5124005;27;20062;-63
2022/05/11 10:41:30;;;;;;;8.13;2.75;;;;;;;29.22;31.18;100951.78;5134517;27;20039;-63
2022/05/11 10:44:20;;;;;;;8.82;2.90;;;;;;;29.03;30.80;100947.31;5098894;27;20039;-63
2022/05/11 10:47:02;;;;;;;5.85;2.42;;;;;;;28.91;30.91;100943.56;5135001;27;20039;-63
2022/05/11 10:49:43;;;;;;;6.38;2.90;;;;;;;28.86;30.96;100932.34;5134077;27;20045;-63
2022/05/11 10:52:28;;;;;;;4.68;2.20;;;;;;;28.78;30.94;100927.94;5134490;27;20043;-63
2022/05/11 10:55:14;;;;;;;4.38;2.72;;;;;;;28.80;30.81;100934.91;5134481;27;20051;-64
2022/05/11 10:58:03;;;;;;;4.28;2.30;;;;;;;28.77;30.96;100935.38;5134540;27;20035;-62
2022/05/11 11:00:42;;;;;;;4.88;2.80;;;;;;;28.73;30.78;100934.13;5134331;27;20035;-63
2022/05/11 11:03:27;;;;;;;5.75;2.58;;;;;;;28.74;30.99;100918.41;5126800;27;20101;-63
2022/05/11 11:09:22;;;;;;;3.75;2.80;;;;;;;28.83;30.91;100925.31;5119809;27;20381;-62
2022/05/11 11:12:00;;;;;;;8.80;2.78;;;;;;;28.96;31.03;100922.47;5113476;28;20500;-63
2022/05/11 11:14:33;;;;;;;6.57;2.58;;;;;;;29.11;30.89;100911.06;5113480;28;20454;-63
2022/05/11 11:17:05;;;;;;;4.18;1.90;;;;;;;29.23;30.55;100913.91;5126183;27;20063;-63
2022/05/11 11:19:34;;;;;;;12.88;2.50;;;;;;;29.40;30.34;100913.06;5134101;27;20412;-63
2022/05/11 11:22:04;;;;;;;8.95;2.42;;;;;;;29.56;29.94;100922.69;5133953;27;20485;-64
2022/05/11 11:24:31;;;;;;;6.05;2.15;;;;;;;29.66;29.78;100913.84;5133657;27;20047;-63
2022/05/11 11:27:03;;;;;;;5.25;2.55;;;;;;;29.68;29.27;100911.69;5134047;27;20092;-63
2022/05/11 11:29:36;;;;;;;6.60;2.20;;;;;;;29.72;29.52;100904.59;5133948;27;20526;-63
2022/05/11 11:32:14;;;;;;;6.82;2.20;;;;;;;29.80;29.36;100901.53;5133849;27;20075;-63
2022/05/11 11:34:43;;;;;;;4.20;1.70;;;;;;;29.96;29.40;100902.81;5133625;27;20050;-63
2022/05/11 11:37:43;;;;;;;3.85;1.70;;;;;;;30.15;29.33;100890.63;5132677;28;20443;-63
2022/05/11 11:40:12;;;;;;;5.15;2.10;;;;;;;30.33;28.71;100893.31;5100436;27;20055;-64
2022/05/11 11:42:42;;;;;;;7.43;1.80;;;;;;;30.40;28.46;100890.44;5133663;28;20047;-64
2022/05/11 11:45:26;;;;;;;3.55;1.67;;;;;;;30.45;28.13;100886.94;5133858;27;20035;-63
2022/05/11 11:48:15;;;;;;;5.13;1.73;;;;;;;30.47;28.20;100890.31;5133529;27;20050;-62
2022/05/11 11:50:54;;;;;;;3.22;1.98;;;;;;;30.55;28.00;100887.22;5134031;27;20059;-62
2022/05/11 11:53:36;;;;;;;4.60;1.80;;;;;;;30.58;27.67;100882.03;5137797;27;20050;-63
2022/05/11 11:56:24;;;;;;;6.28;2.88;;;;;;;30.57;27.56;100877.59;5137934;27;20039;-63
2022/05/11 11:59:04;;;;;;;10.95;2.25;;;;;;;30.59;27.31;100881.00;5137753;27;20049;-63
2022/05/11 12:01:35;;;;;;;7.63;2.20;;;;;;;30.62;27.43;100879.66;5137560;27;20051;-63
2022/05/11 12:04:23;;;;;;;5.03;2.03;;;;;;;30.68;27.73;100867.63;5137599;27;20054;-63
2022/05/11 12:15:33;;;;;;;4.97;2.13;;;;;;;31.26;26.87;100864.00;5137662;27;20046;-63
2022/05/11 12:18:01;;;;;;;7.63;1.98;;;;;;;31.23;26.71;100870.03;5136114;27;20043;-63
2022/05/11 12:20:42;;;;;;;6.18;2.13;;;;;;;31.15;26.83;100862.91;5137232;27;20534;-63
2022/05/11 12:23:21;;;;;;;9.98;2.15;;;;;;;31.11;26.46;100863.59;5137104;27;20480;-63
2022/05/11 12:25:54;;;;;;;4.90;2.15;;;;;;;31.04;26.53;100855.41;5137406;27;20039;-62
2022/05/11 12:28:26;;;;;;;8.38;2.10;;;;;;;30.97;26.55;100852.78;5134180;27;20051;-62
2022/05/11 12:30:53;;;;;;;4.53;1.83;;;;;;;31.02;26.76;100843.72;5135745;27;20038;-62